sensor_id;sensor_type;location;lat;lon;timestamp;P1;durP1;ratioP1;P2;durP2;ratioP2
16890;SDS011;8562;52.246;20.966;2023-04-19T00:01:43;4.50;;;3.20;;
16890;SDS011;8562;52.246;20.966;2023-04-19T00:04:08;4.57;;;2.80;;
16890;SDS011;8562;52.246;20.966;2023-04-19T00:06:34;3.93;;;3.03;;
16890;SDS011;8562;52.246;20.966;2023-04-19T00:08:59;4.10;;;2.77;;
16890;SDS011;8562;52.246;20.966;2023-04-19T00:11:24;3.80;;;2.60;;
16890;SDS011;8562;52.246;20.966;2023-04-19T00:13:50;3.83;;;2.63;;
16890;SDS011;8562;52.246;20.966;2023-04-19T00:16:15;3.07;;;2.80;;
16890;SDS011;8562;52.246;20.966;2023-04-19T00:18:40;3.90;;;2.90;;
16890;SDS011;8562;52.246;20.966;2023-04-19T00:21:06;4.57;;;2.57;;
16890;SDS011;8562;52.246;20.966;2023-04-19T00:23:32;4.43;;;3.03;;
16890;SDS011;8562;52.246;20.966;2023-04-19T00:25:57;5.40;;;3.07;;
16890;SDS011;8562;52.246;20.966;2023-04-19T00:28:23;4.17;;;2.37;;
16890;SDS011;8562;52.246;20.966;2023-04-19T00:30:48;3.50;;;2.93;;
16890;SDS011;8562;52.246;20.966;2023-04-19T00:33:14;3.30;;;2.63;;
16890;SDS011;8562;52.246;20.966;2023-04-19T00:35:39;3.57;;;3.00;;
16890;SDS011;8562;52.246;20.966;2023-04-19T00:38:05;5.00;;;2.50;;
16890;SDS011;8562;52.246;20.966;2023-04-19T00:40:31;6.23;;;2.77;;
16890;SDS011;8562;52.246;20.966;2023-04-19T00:42:56;2.83;;;2.30;;
16890;SDS011;8562;52.246;20.966;2023-04-19T00:45:21;5.33;;;2.57;;
16890;SDS011;8562;52.246;20.966;2023-04-19T00:47:47;4.20;;;2.93;;
16890;SDS011;8562;52.246;20.966;2023-04-19T00:50:12;5.83;;;2.63;;
16890;SDS011;8562;52.246;20.966;2023-04-19T00:52:37;3.00;;;2.63;;
16890;SDS011;8562;52.246;20.966;2023-04-19T00:55:03;4.90;;;2.70;;
16890;SDS011;8562;52.246;20.966;2023-04-19T00:57:28;4.33;;;2.73;;
16890;SDS011;8562;52.246;20.966;2023-04-19T01:02:35;5.23;;;3.47;;
16890;SDS011;8562;52.246;20.966;2023-04-19T01:05:01;4.47;;;2.93;;
16890;SDS011;8562;52.246;20.966;2023-04-19T01:07:26;5.57;;;3.23;;
16890;SDS011;8562;52.246;20.966;2023-04-19T01:09:52;5.03;;;3.40;;
16890;SDS011;8562;52.246;20.966;2023-04-19T01:12:20;4.70;;;3.70;;
16890;SDS011;8562;52.246;20.966;2023-04-19T01:14:45;5.40;;;3.60;;
16890;SDS011;8562;52.246;20.966;2023-04-19T01:17:10;3.70;;;3.23;;
16890;SDS011;8562;52.246;20.966;2023-04-19T01:19:37;6.73;;;3.17;;
16890;SDS011;8562;52.246;20.966;2023-04-19T01:22:02;4.07;;;3.40;;
16890;SDS011;8562;52.246;20.966;2023-04-19T01:24:28;5.20;;;3.23;;
16890;SDS011;8562;52.246;20.966;2023-04-19T01:26:54;4.13;;;3.67;;
16890;SDS011;8562;52.246;20.966;2023-04-19T01:29:19;4.00;;;3.37;;
16890;SDS011;8562;52.246;20.966;2023-04-19T01:31:46;5.77;;;3.53;;
16890;SDS011;8562;52.246;20.966;2023-04-19T01:34:15;6.17;;;3.83;;
16890;SDS011;8562;52.246;20.966;2023-04-19T01:36:40;6.73;;;4.17;;
16890;SDS011;8562;52.246;20.966;2023-04-19T01:39:06;4.10;;;2.97;;
16890;SDS011;8562;52.246;20.966;2023-04-19T01:41:31;5.07;;;3.83;;
16890;SDS011;8562;52.246;20.966;2023-04-19T01:43:56;7.47;;;4.40;;
16890;SDS011;8562;52.246;20.966;2023-04-19T01:46:22;7.33;;;4.90;;
16890;SDS011;8562;52.246;20.966;2023-04-19T01:48:47;7.17;;;5.03;;
16890;SDS011;8562;52.246;20.966;2023-04-19T01:51:12;6.43;;;4.37;;
16890;SDS011;8562;52.246;20.966;2023-04-19T01:53:38;7.30;;;5.07;;
16890;SDS011;8562;52.246;20.966;2023-04-19T01:56:03;5.10;;;4.57;;
16890;SDS011;8562;52.246;20.966;2023-04-19T01:58:28;8.27;;;5.33;;
16890;SDS011;8562;52.246;20.966;2023-04-19T02:00:54;4.43;;;3.53;;
16890;SDS011;8562;52.246;20.966;2023-04-19T02:03:19;5.97;;;4.37;;
16890;SDS011;8562;52.246;20.966;2023-04-19T02:05:44;7.60;;;4.03;;
16890;SDS011;8562;52.246;20.966;2023-04-19T02:08:09;4.73;;;3.87;;
16890;SDS011;8562;52.246;20.966;2023-04-19T02:10:35;5.20;;;4.23;;
16890;SDS011;8562;52.246;20.966;2023-04-19T02:13:00;6.10;;;5.10;;
16890;SDS011;8562;52.246;20.966;2023-04-19T02:15:26;6.23;;;4.70;;
16890;SDS011;8562;52.246;20.966;2023-04-19T02:17:51;6.77;;;5.20;;
16890;SDS011;8562;52.246;20.966;2023-04-19T02:20:17;5.23;;;4.07;;
16890;SDS011;8562;52.246;20.966;2023-04-19T02:22:43;6.07;;;4.77;;
16890;SDS011;8562;52.246;20.966;2023-04-19T02:25:09;6.87;;;4.93;;
16890;SDS011;8562;52.246;20.966;2023-04-19T02:27:34;6.20;;;4.40;;
16890;SDS011;8562;52.246;20.966;2023-04-19T02:30:00;5.10;;;4.00;;
16890;SDS011;8562;52.246;20.966;2023-04-19T02:32:26;5.77;;;3.70;;
16890;SDS011;8562;52.246;20.966;2023-04-19T02:34:51;5.73;;;4.53;;
16890;SDS011;8562;52.246;20.966;2023-04-19T02:37:16;7.50;;;5.10;;
16890;SDS011;8562;52.246;20.966;2023-04-19T02:39:42;6.13;;;4.60;;
16890;SDS011;8562;52.246;20.966;2023-04-19T02:42:07;7.77;;;4.40;;
16890;SDS011;8562;52.246;20.966;2023-04-19T02:44:33;6.83;;;4.40;;
16890;SDS011;8562;52.246;20.966;2023-04-19T02:46:58;4.10;;;3.37;;
16890;SDS011;8562;52.246;20.966;2023-04-19T02:49:23;4.53;;;4.03;;
16890;SDS011;8562;52.246;20.966;2023-04-19T02:51:49;4.77;;;3.70;;
16890;SDS011;8562;52.246;20.966;2023-04-19T02:54:15;9.83;;;4.40;;
16890;SDS011;8562;52.246;20.966;2023-04-19T02:56:42;4.93;;;4.00;;
16890;SDS011;8562;52.246;20.966;2023-04-19T02:59:08;7.33;;;4.73;;
16890;SDS011;8562;52.246;20.966;2023-04-19T03:01:33;5.87;;;4.10;;
16890;SDS011;8562;52.246;20.966;2023-04-19T03:04:02;4.47;;;3.63;;
16890;SDS011;8562;52.246;20.966;2023-04-19T03:06:27;5.00;;;3.73;;
16890;SDS011;8562;52.246;20.966;2023-04-19T03:08:53;5.30;;;4.17;;
16890;SDS011;8562;52.246;20.966;2023-04-19T03:11:18;6.17;;;4.20;;
16890;SDS011;8562;52.246;20.966;2023-04-19T03:13:45;4.33;;;3.93;;
16890;SDS011;8562;52.246;20.966;2023-04-19T03:16:11;6.57;;;4.87;;
16890;SDS011;8562;52.246;20.966;2023-04-19T03:18:37;7.33;;;4.70;;
16890;SDS011;8562;52.246;20.966;2023-04-19T03:21:03;8.30;;;4.37;;
16890;SDS011;8562;52.246;20.966;2023-04-19T03:23:36;7.03;;;5.30;;
16890;SDS011;8562;52.246;20.966;2023-04-19T03:26:02;5.90;;;4.60;;
16890;SDS011;8562;52.246;20.966;2023-04-19T03:28:37;6.47;;;4.90;;
16890;SDS011;8562;52.246;20.966;2023-04-19T03:31:22;7.07;;;4.80;;
16890;SDS011;8562;52.246;20.966;2023-04-19T03:33:49;5.27;;;4.57;;
16890;SDS011;8562;52.246;20.966;2023-04-19T03:36:15;8.73;;;5.03;;
16890;SDS011;8562;52.246;20.966;2023-04-19T03:38:43;6.03;;;4.93;;
16890;SDS011;8562;52.246;20.966;2023-04-19T03:41:18;5.63;;;4.67;;
16890;SDS011;8562;52.246;20.966;2023-04-19T03:43:43;5.57;;;4.93;;
16890;SDS011;8562;52.246;20.966;2023-04-19T03:46:09;7.27;;;5.30;;
16890;SDS011;8562;52.246;20.966;2023-04-19T03:48:34;6.67;;;4.77;;
16890;SDS011;8562;52.246;20.966;2023-04-19T03:51:00;9.30;;;5.40;;
16890;SDS011;8562;52.246;20.966;2023-04-19T03:53:26;7.60;;;5.87;;
16890;SDS011;8562;52.246;20.966;2023-04-19T03:55:51;7.07;;;5.70;;
16890;SDS011;8562;52.246;20.966;2023-04-19T03:58:16;8.73;;;6.60;;
16890;SDS011;8562;52.246;20.966;2023-04-19T04:00:49;6.33;;;5.37;;
16890;SDS011;8562;52.246;20.966;2023-04-19T04:03:14;6.13;;;5.10;;
16890;SDS011;8562;52.246;20.966;2023-04-19T04:05:40;7.87;;;6.13;;
16890;SDS011;8562;52.246;20.966;2023-04-19T04:08:05;8.17;;;5.00;;
16890;SDS011;8562;52.246;20.966;2023-04-19T04:10:30;7.00;;;5.57;;
16890;SDS011;8562;52.246;20.966;2023-04-19T04:12:56;7.50;;;6.17;;
16890;SDS011;8562;52.246;20.966;2023-04-19T04:15:34;9.50;;;5.83;;
16890;SDS011;8562;52.246;20.966;2023-04-19T04:17:59;7.60;;;6.13;;
16890;SDS011;8562;52.246;20.966;2023-04-19T04:20:25;9.90;;;6.47;;
16890;SDS011;8562;52.246;20.966;2023-04-19T04:22:55;11.77;;;5.43;;
16890;SDS011;8562;52.246;20.966;2023-04-19T04:25:21;9.30;;;5.67;;
16890;SDS011;8562;52.246;20.966;2023-04-19T04:27:46;6.57;;;5.50;;
16890;SDS011;8562;52.246;20.966;2023-04-19T04:30:16;7.53;;;6.17;;
16890;SDS011;8562;52.246;20.966;2023-04-19T04:32:42;5.50;;;4.73;;
16890;SDS011;8562;52.246;20.966;2023-04-19T04:35:09;5.13;;;4.33;;
16890;SDS011;8562;52.246;20.966;2023-04-19T04:37:43;6.57;;;4.90;;
16890;SDS011;8562;52.246;20.966;2023-04-19T04:40:09;4.47;;;4.00;;
16890;SDS011;8562;52.246;20.966;2023-04-19T04:42:35;5.87;;;4.73;;
16890;SDS011;8562;52.246;20.966;2023-04-19T04:45:01;5.83;;;4.40;;
16890;SDS011;8562;52.246;20.966;2023-04-19T04:47:29;4.40;;;4.00;;
16890;SDS011;8562;52.246;20.966;2023-04-19T04:49:55;6.73;;;5.10;;
16890;SDS011;8562;52.246;20.966;2023-04-19T04:52:20;6.20;;;4.90;;
16890;SDS011;8562;52.246;20.966;2023-04-19T04:54:59;7.10;;;5.50;;
16890;SDS011;8562;52.246;20.966;2023-04-19T04:57:30;6.87;;;5.37;;
16890;SDS011;8562;52.246;20.966;2023-04-19T04:59:56;9.77;;;7.07;;
16890;SDS011;8562;52.246;20.966;2023-04-19T05:02:25;11.17;;;7.13;;
16890;SDS011;8562;52.246;20.966;2023-04-19T05:04:51;6.83;;;5.77;;
16890;SDS011;8562;52.246;20.966;2023-04-19T05:07:16;9.97;;;5.97;;
16890;SDS011;8562;52.246;20.966;2023-04-19T05:09:42;6.20;;;4.93;;
16890;SDS011;8562;52.246;20.966;2023-04-19T05:12:07;5.77;;;4.50;;
16890;SDS011;8562;52.246;20.966;2023-04-19T05:14:32;4.87;;;4.40;;
16890;SDS011;8562;52.246;20.966;2023-04-19T05:16:58;5.70;;;4.73;;
16890;SDS011;8562;52.246;20.966;2023-04-19T05:19:23;5.63;;;4.47;;
16890;SDS011;8562;52.246;20.966;2023-04-19T05:21:54;5.47;;;4.77;;
16890;SDS011;8562;52.246;20.966;2023-04-19T05:24:21;5.07;;;4.43;;
16890;SDS011;8562;52.246;20.966;2023-04-19T05:26:47;6.73;;;5.00;;
16890;SDS011;8562;52.246;20.966;2023-04-19T05:29:12;5.23;;;4.50;;
16890;SDS011;8562;52.246;20.966;2023-04-19T05:31:50;6.30;;;4.37;;
16890;SDS011;8562;52.246;20.966;2023-04-19T05:34:28;5.50;;;4.87;;
16890;SDS011;8562;52.246;20.966;2023-04-19T05:36:56;6.60;;;5.17;;
16890;SDS011;8562;52.246;20.966;2023-04-19T05:39:21;5.00;;;4.37;;
16890;SDS011;8562;52.246;20.966;2023-04-19T05:41:46;5.63;;;4.67;;
16890;SDS011;8562;52.246;20.966;2023-04-19T05:44:12;7.73;;;5.37;;
16890;SDS011;8562;52.246;20.966;2023-04-19T05:46:37;6.23;;;4.60;;
16890;SDS011;8562;52.246;20.966;2023-04-19T05:49:04;5.63;;;5.07;;
16890;SDS011;8562;52.246;20.966;2023-04-19T05:52:02;5.67;;;4.57;;
16890;SDS011;8562;52.246;20.966;2023-04-19T05:54:39;5.73;;;4.37;;
16890;SDS011;8562;52.246;20.966;2023-04-19T05:57:05;7.97;;;5.50;;
16890;SDS011;8562;52.246;20.966;2023-04-19T05:59:31;8.23;;;5.67;;
16890;SDS011;8562;52.246;20.966;2023-04-19T06:01:56;6.20;;;5.07;;
16890;SDS011;8562;52.246;20.966;2023-04-19T06:04:21;5.60;;;4.43;;
16890;SDS011;8562;52.246;20.966;2023-04-19T06:06:47;6.23;;;5.27;;
16890;SDS011;8562;52.246;20.966;2023-04-19T06:09:13;6.60;;;5.23;;
16890;SDS011;8562;52.246;20.966;2023-04-19T06:11:39;8.83;;;5.90;;
16890;SDS011;8562;52.246;20.966;2023-04-19T06:14:05;6.93;;;5.40;;
16890;SDS011;8562;52.246;20.966;2023-04-19T06:16:30;7.07;;;5.40;;
16890;SDS011;8562;52.246;20.966;2023-04-19T06:18:55;7.63;;;5.33;;
16890;SDS011;8562;52.246;20.966;2023-04-19T06:21:21;10.90;;;6.10;;
16890;SDS011;8562;52.246;20.966;2023-04-19T06:23:46;9.70;;;5.83;;
16890;SDS011;8562;52.246;20.966;2023-04-19T06:26:11;9.97;;;7.30;;
16890;SDS011;8562;52.246;20.966;2023-04-19T06:28:36;11.17;;;8.87;;
16890;SDS011;8562;52.246;20.966;2023-04-19T06:31:02;8.97;;;6.93;;
16890;SDS011;8562;52.246;20.966;2023-04-19T06:33:27;12.40;;;9.10;;
16890;SDS011;8562;52.246;20.966;2023-04-19T06:35:52;10.47;;;8.00;;
16890;SDS011;8562;52.246;20.966;2023-04-19T06:38:18;13.30;;;9.00;;
16890;SDS011;8562;52.246;20.966;2023-04-19T06:40:43;11.10;;;8.17;;
16890;SDS011;8562;52.246;20.966;2023-04-19T06:43:08;7.73;;;6.93;;
16890;SDS011;8562;52.246;20.966;2023-04-19T06:45:33;9.20;;;7.40;;
16890;SDS011;8562;52.246;20.966;2023-04-19T06:47:59;11.77;;;8.50;;
16890;SDS011;8562;52.246;20.966;2023-04-19T06:50:24;14.27;;;9.80;;
16890;SDS011;8562;52.246;20.966;2023-04-19T06:52:51;12.33;;;8.37;;
16890;SDS011;8562;52.246;20.966;2023-04-19T06:55:16;13.13;;;8.23;;
16890;SDS011;8562;52.246;20.966;2023-04-19T06:57:41;12.00;;;9.53;;
16890;SDS011;8562;52.246;20.966;2023-04-19T07:00:09;11.30;;;9.80;;
16890;SDS011;8562;52.246;20.966;2023-04-19T07:02:34;13.03;;;8.47;;
16890;SDS011;8562;52.246;20.966;2023-04-19T07:05:00;12.33;;;9.00;;
16890;SDS011;8562;52.246;20.966;2023-04-19T07:07:25;12.00;;;8.50;;
16890;SDS011;8562;52.246;20.966;2023-04-19T07:09:50;12.23;;;8.77;;
16890;SDS011;8562;52.246;20.966;2023-04-19T07:12:16;12.43;;;9.33;;
16890;SDS011;8562;52.246;20.966;2023-04-19T07:14:41;12.43;;;8.23;;
16890;SDS011;8562;52.246;20.966;2023-04-19T07:17:06;17.10;;;8.47;;
16890;SDS011;8562;52.246;20.966;2023-04-19T07:19:32;11.63;;;7.97;;
16890;SDS011;8562;52.246;20.966;2023-04-19T07:21:57;13.47;;;8.47;;
16890;SDS011;8562;52.246;20.966;2023-04-19T07:24:22;11.17;;;7.63;;
16890;SDS011;8562;52.246;20.966;2023-04-19T07:26:48;9.77;;;6.80;;
16890;SDS011;8562;52.246;20.966;2023-04-19T07:29:13;9.83;;;7.00;;
16890;SDS011;8562;52.246;20.966;2023-04-19T07:31:38;9.77;;;7.67;;
16890;SDS011;8562;52.246;20.966;2023-04-19T07:34:05;8.77;;;6.90;;
16890;SDS011;8562;52.246;20.966;2023-04-19T07:36:31;10.70;;;7.30;;
16890;SDS011;8562;52.246;20.966;2023-04-19T07:38:56;11.43;;;6.77;;
16890;SDS011;8562;52.246;20.966;2023-04-19T07:41:21;7.10;;;5.57;;
16890;SDS011;8562;52.246;20.966;2023-04-19T07:43:47;7.87;;;6.70;;
16890;SDS011;8562;52.246;20.966;2023-04-19T07:46:13;9.20;;;6.97;;
16890;SDS011;8562;52.246;20.966;2023-04-19T07:48:40;10.13;;;6.17;;
16890;SDS011;8562;52.246;20.966;2023-04-19T07:53:34;8.23;;;6.30;;
16890;SDS011;8562;52.246;20.966;2023-04-19T07:55:59;9.73;;;6.40;;
16890;SDS011;8562;52.246;20.966;2023-04-19T07:58:24;9.30;;;6.20;;
16890;SDS011;8562;52.246;20.966;2023-04-19T08:00:50;9.13;;;6.93;;
16890;SDS011;8562;52.246;20.966;2023-04-19T08:03:16;8.07;;;6.27;;
16890;SDS011;8562;52.246;20.966;2023-04-19T08:05:41;7.93;;;6.03;;
16890;SDS011;8562;52.246;20.966;2023-04-19T08:08:06;8.00;;;6.37;;
16890;SDS011;8562;52.246;20.966;2023-04-19T08:10:31;8.13;;;6.23;;
16890;SDS011;8562;52.246;20.966;2023-04-19T08:12:57;7.53;;;5.93;;
16890;SDS011;8562;52.246;20.966;2023-04-19T08:15:22;8.50;;;6.23;;
16890;SDS011;8562;52.246;20.966;2023-04-19T08:17:47;13.67;;;5.87;;
16890;SDS011;8562;52.246;20.966;2023-04-19T08:20:13;8.07;;;5.97;;
16890;SDS011;8562;52.246;20.966;2023-04-19T08:22:39;8.90;;;5.47;;
16890;SDS011;8562;52.246;20.966;2023-04-19T08:25:05;7.27;;;5.40;;
16890;SDS011;8562;52.246;20.966;2023-04-19T08:27:30;9.93;;;6.07;;
16890;SDS011;8562;52.246;20.966;2023-04-19T08:29:56;9.07;;;6.57;;
16890;SDS011;8562;52.246;20.966;2023-04-19T08:32:21;9.10;;;5.50;;
16890;SDS011;8562;52.246;20.966;2023-04-19T08:34:46;6.43;;;5.10;;
16890;SDS011;8562;52.246;20.966;2023-04-19T08:37:12;8.27;;;5.97;;
16890;SDS011;8562;52.246;20.966;2023-04-19T08:39:38;7.47;;;6.07;;
16890;SDS011;8562;52.246;20.966;2023-04-19T08:42:04;7.97;;;5.97;;
16890;SDS011;8562;52.246;20.966;2023-04-19T08:44:30;7.10;;;5.77;;
16890;SDS011;8562;52.246;20.966;2023-04-19T08:46:56;10.73;;;6.23;;
16890;SDS011;8562;52.246;20.966;2023-04-19T08:49:22;8.87;;;5.27;;
16890;SDS011;8562;52.246;20.966;2023-04-19T08:51:48;7.80;;;6.70;;
16890;SDS011;8562;52.246;20.966;2023-04-19T08:54:14;11.23;;;6.33;;
16890;SDS011;8562;52.246;20.966;2023-04-19T08:56:40;9.17;;;6.90;;
16890;SDS011;8562;52.246;20.966;2023-04-19T08:59:05;6.80;;;5.50;;
16890;SDS011;8562;52.246;20.966;2023-04-19T09:01:30;7.83;;;6.10;;
16890;SDS011;8562;52.246;20.966;2023-04-19T09:03:56;6.17;;;5.47;;
16890;SDS011;8562;52.246;20.966;2023-04-19T09:06:21;5.67;;;4.43;;
16890;SDS011;8562;52.246;20.966;2023-04-19T09:08:46;8.40;;;5.67;;
16890;SDS011;8562;52.246;20.966;2023-04-19T09:11:12;8.67;;;5.50;;
16890;SDS011;8562;52.246;20.966;2023-04-19T09:13:37;7.03;;;4.90;;
16890;SDS011;8562;52.246;20.966;2023-04-19T09:16:04;5.77;;;4.77;;
16890;SDS011;8562;52.246;20.966;2023-04-19T09:18:32;7.07;;;5.30;;
16890;SDS011;8562;52.246;20.966;2023-04-19T09:20:57;6.57;;;4.63;;
16890;SDS011;8562;52.246;20.966;2023-04-19T09:23:23;5.93;;;4.27;;
16890;SDS011;8562;52.246;20.966;2023-04-19T09:28:18;6.77;;;6.03;;
16890;SDS011;8562;52.246;20.966;2023-04-19T09:30:43;9.03;;;5.63;;
16890;SDS011;8562;52.246;20.966;2023-04-19T09:33:08;5.80;;;5.20;;
16890;SDS011;8562;52.246;20.966;2023-04-19T09:38:05;7.03;;;4.80;;
16890;SDS011;8562;52.246;20.966;2023-04-19T09:40:31;5.83;;;4.70;;
16890;SDS011;8562;52.246;20.966;2023-04-19T09:42:56;6.97;;;5.13;;
16890;SDS011;8562;52.246;20.966;2023-04-19T09:45:21;6.73;;;4.30;;
16890;SDS011;8562;52.246;20.966;2023-04-19T09:48:00;8.73;;;5.13;;
16890;SDS011;8562;52.246;20.966;2023-04-19T09:50:26;6.47;;;5.17;;
16890;SDS011;8562;52.246;20.966;2023-04-19T09:52:51;8.03;;;4.70;;
16890;SDS011;8562;52.246;20.966;2023-04-19T09:55:16;8.27;;;4.57;;
16890;SDS011;8562;52.246;20.966;2023-04-19T09:57:43;5.53;;;4.53;;
16890;SDS011;8562;52.246;20.966;2023-04-19T10:00:08;5.30;;;4.50;;
16890;SDS011;8562;52.246;20.966;2023-04-19T10:02:38;6.20;;;5.00;;
16890;SDS011;8562;52.246;20.966;2023-04-19T10:05:04;6.83;;;5.03;;
16890;SDS011;8562;52.246;20.966;2023-04-19T10:07:30;8.20;;;5.47;;
16890;SDS011;8562;52.246;20.966;2023-04-19T10:09:56;6.00;;;4.83;;
16890;SDS011;8562;52.246;20.966;2023-04-19T10:12:23;5.47;;;4.43;;
16890;SDS011;8562;52.246;20.966;2023-04-19T10:14:49;5.87;;;4.77;;
16890;SDS011;8562;52.246;20.966;2023-04-19T10:17:15;6.40;;;4.57;;
16890;SDS011;8562;52.246;20.966;2023-04-19T10:19:40;6.07;;;4.93;;
16890;SDS011;8562;52.246;20.966;2023-04-19T10:22:07;6.67;;;4.57;;
16890;SDS011;8562;52.246;20.966;2023-04-19T10:24:33;4.90;;;4.40;;
16890;SDS011;8562;52.246;20.966;2023-04-19T10:27:11;5.77;;;4.87;;
16890;SDS011;8562;52.246;20.966;2023-04-19T10:32:20;7.30;;;5.40;;
16890;SDS011;8562;52.246;20.966;2023-04-19T10:34:46;6.00;;;4.73;;
16890;SDS011;8562;52.246;20.966;2023-04-19T10:37:14;7.20;;;5.90;;
16890;SDS011;8562;52.246;20.966;2023-04-19T10:39:40;6.87;;;4.80;;
16890;SDS011;8562;52.246;20.966;2023-04-19T10:42:06;5.67;;;4.43;;
16890;SDS011;8562;52.246;20.966;2023-04-19T10:44:31;6.13;;;4.03;;
16890;SDS011;8562;52.246;20.966;2023-04-19T10:46:59;5.77;;;4.90;;
16890;SDS011;8562;52.246;20.966;2023-04-19T10:49:26;6.07;;;4.43;;
16890;SDS011;8562;52.246;20.966;2023-04-19T10:51:52;5.40;;;4.80;;
16890;SDS011;8562;52.246;20.966;2023-04-19T10:54:28;4.80;;;4.13;;
16890;SDS011;8562;52.246;20.966;2023-04-19T10:56:59;11.37;;;7.10;;
16890;SDS011;8562;52.246;20.966;2023-04-19T10:59:24;7.70;;;5.50;;
16890;SDS011;8562;52.246;20.966;2023-04-19T11:01:51;5.73;;;4.10;;
16890;SDS011;8562;52.246;20.966;2023-04-19T11:04:23;7.37;;;5.57;;
16890;SDS011;8562;52.246;20.966;2023-04-19T11:11:51;6.37;;;4.63;;
16890;SDS011;8562;52.246;20.966;2023-04-19T11:14:17;8.50;;;4.90;;
16890;SDS011;8562;52.246;20.966;2023-04-19T11:16:44;10.17;;;5.30;;
16890;SDS011;8562;52.246;20.966;2023-04-19T11:19:09;6.10;;;5.30;;
16890;SDS011;8562;52.246;20.966;2023-04-19T11:21:39;4.87;;;4.03;;
16890;SDS011;8562;52.246;20.966;2023-04-19T11:24:05;6.87;;;5.07;;
16890;SDS011;8562;52.246;20.966;2023-04-19T11:26:31;4.53;;;4.07;;
16890;SDS011;8562;52.246;20.966;2023-04-19T11:28:56;5.33;;;4.17;;
16890;SDS011;8562;52.246;20.966;2023-04-19T11:31:22;6.30;;;4.53;;
16890;SDS011;8562;52.246;20.966;2023-04-19T11:33:48;5.17;;;4.03;;
16890;SDS011;8562;52.246;20.966;2023-04-19T11:36:13;4.77;;;3.97;;
16890;SDS011;8562;52.246;20.966;2023-04-19T11:38:38;5.60;;;4.97;;
16890;SDS011;8562;52.246;20.966;2023-04-19T11:41:04;7.43;;;4.77;;
16890;SDS011;8562;52.246;20.966;2023-04-19T11:43:33;5.37;;;3.93;;
16890;SDS011;8562;52.246;20.966;2023-04-19T11:46:09;6.43;;;4.30;;
16890;SDS011;8562;52.246;20.966;2023-04-19T11:48:35;5.67;;;4.67;;
16890;SDS011;8562;52.246;20.966;2023-04-19T11:51:00;5.83;;;4.53;;
16890;SDS011;8562;52.246;20.966;2023-04-19T11:53:26;5.27;;;4.77;;
16890;SDS011;8562;52.246;20.966;2023-04-19T11:55:55;6.23;;;5.23;;
16890;SDS011;8562;52.246;20.966;2023-04-19T12:00:46;8.57;;;4.50;;
16890;SDS011;8562;52.246;20.966;2023-04-19T12:03:12;5.33;;;4.83;;
16890;SDS011;8562;52.246;20.966;2023-04-19T12:08:41;8.60;;;5.77;;
16890;SDS011;8562;52.246;20.966;2023-04-19T12:11:07;5.33;;;4.30;;
16890;SDS011;8562;52.246;20.966;2023-04-19T12:13:32;6.03;;;4.53;;
16890;SDS011;8562;52.246;20.966;2023-04-19T12:15:58;9.57;;;4.63;;
16890;SDS011;8562;52.246;20.966;2023-04-19T12:18:23;6.50;;;5.03;;
16890;SDS011;8562;52.246;20.966;2023-04-19T12:20:50;5.30;;;4.80;;
16890;SDS011;8562;52.246;20.966;2023-04-19T12:23:16;5.27;;;4.33;;
16890;SDS011;8562;52.246;20.966;2023-04-19T12:25:44;6.00;;;4.13;;
16890;SDS011;8562;52.246;20.966;2023-04-19T12:28:10;5.27;;;4.47;;
16890;SDS011;8562;52.246;20.966;2023-04-19T12:30:35;4.77;;;3.93;;
16890;SDS011;8562;52.246;20.966;2023-04-19T12:33:01;5.83;;;3.73;;
16890;SDS011;8562;52.246;20.966;2023-04-19T12:35:26;4.43;;;4.03;;
16890;SDS011;8562;52.246;20.966;2023-04-19T12:37:52;5.30;;;4.03;;
16890;SDS011;8562;52.246;20.966;2023-04-19T12:40:18;4.87;;;4.00;;
16890;SDS011;8562;52.246;20.966;2023-04-19T12:42:43;5.63;;;3.93;;
16890;SDS011;8562;52.246;20.966;2023-04-19T12:45:09;6.40;;;4.03;;
16890;SDS011;8562;52.246;20.966;2023-04-19T12:47:35;5.50;;;4.30;;
16890;SDS011;8562;52.246;20.966;2023-04-19T12:50:01;5.07;;;3.90;;
16890;SDS011;8562;52.246;20.966;2023-04-19T12:52:26;7.27;;;4.40;;
16890;SDS011;8562;52.246;20.966;2023-04-19T12:54:51;5.40;;;4.57;;
16890;SDS011;8562;52.246;20.966;2023-04-19T12:57:17;5.60;;;3.93;;
16890;SDS011;8562;52.246;20.966;2023-04-19T12:59:42;4.47;;;3.77;;
16890;SDS011;8562;52.246;20.966;2023-04-19T13:02:07;5.40;;;4.00;;
16890;SDS011;8562;52.246;20.966;2023-04-19T13:04:32;4.37;;;3.90;;
16890;SDS011;8562;52.246;20.966;2023-04-19T13:06:58;6.10;;;3.73;;
16890;SDS011;8562;52.246;20.966;2023-04-19T13:09:23;5.53;;;3.83;;
16890;SDS011;8562;52.246;20.966;2023-04-19T13:11:48;4.83;;;3.20;;
16890;SDS011;8562;52.246;20.966;2023-04-19T13:14:14;4.10;;;2.90;;
16890;SDS011;8562;52.246;20.966;2023-04-19T13:16:39;5.23;;;3.70;;
16890;SDS011;8562;52.246;20.966;2023-04-19T13:19:04;3.23;;;2.93;;
16890;SDS011;8562;52.246;20.966;2023-04-19T13:21:29;5.50;;;2.80;;
16890;SDS011;8562;52.246;20.966;2023-04-19T13:23:57;6.13;;;3.27;;
16890;SDS011;8562;52.246;20.966;2023-04-19T13:26:22;4.40;;;3.63;;
16890;SDS011;8562;52.246;20.966;2023-04-19T13:28:47;4.43;;;3.10;;
16890;SDS011;8562;52.246;20.966;2023-04-19T13:31:13;3.37;;;3.03;;
16890;SDS011;8562;52.246;20.966;2023-04-19T13:33:38;3.87;;;3.47;;
16890;SDS011;8562;52.246;20.966;2023-04-19T13:36:03;5.00;;;3.53;;
16890;SDS011;8562;52.246;20.966;2023-04-19T13:38:29;6.40;;;3.80;;
16890;SDS011;8562;52.246;20.966;2023-04-19T13:40:54;5.07;;;3.57;;
16890;SDS011;8562;52.246;20.966;2023-04-19T13:43:20;4.67;;;3.80;;
16890;SDS011;8562;52.246;20.966;2023-04-19T13:45:46;4.67;;;4.17;;
16890;SDS011;8562;52.246;20.966;2023-04-19T13:48:12;4.63;;;3.80;;
16890;SDS011;8562;52.246;20.966;2023-04-19T13:50:37;5.27;;;3.47;;
16890;SDS011;8562;52.246;20.966;2023-04-19T13:53:02;6.00;;;4.03;;
16890;SDS011;8562;52.246;20.966;2023-04-19T13:55:27;4.13;;;3.30;;
16890;SDS011;8562;52.246;20.966;2023-04-19T13:57:53;4.80;;;3.47;;
16890;SDS011;8562;52.246;20.966;2023-04-19T14:00:18;5.83;;;3.43;;
16890;SDS011;8562;52.246;20.966;2023-04-19T14:02:43;6.50;;;4.33;;
16890;SDS011;8562;52.246;20.966;2023-04-19T14:05:09;4.43;;;3.57;;
16890;SDS011;8562;52.246;20.966;2023-04-19T14:07:37;5.17;;;3.43;;
16890;SDS011;8562;52.246;20.966;2023-04-19T14:10:03;4.43;;;3.60;;
16890;SDS011;8562;52.246;20.966;2023-04-19T14:12:28;7.13;;;4.60;;
16890;SDS011;8562;52.246;20.966;2023-04-19T14:14:54;4.83;;;4.33;;
16890;SDS011;8562;52.246;20.966;2023-04-19T14:17:19;4.80;;;3.37;;
16890;SDS011;8562;52.246;20.966;2023-04-19T14:19:44;8.17;;;4.33;;
16890;SDS011;8562;52.246;20.966;2023-04-19T14:22:10;5.20;;;3.73;;
16890;SDS011;8562;52.246;20.966;2023-04-19T14:24:35;4.73;;;3.37;;
16890;SDS011;8562;52.246;20.966;2023-04-19T14:27:00;6.40;;;3.97;;
16890;SDS011;8562;52.246;20.966;2023-04-19T14:29:25;5.70;;;4.33;;
16890;SDS011;8562;52.246;20.966;2023-04-19T14:31:52;4.47;;;3.93;;
16890;SDS011;8562;52.246;20.966;2023-04-19T14:34:17;6.03;;;4.93;;
16890;SDS011;8562;52.246;20.966;2023-04-19T14:36:42;5.43;;;4.23;;
16890;SDS011;8562;52.246;20.966;2023-04-19T14:39:07;4.50;;;4.03;;
16890;SDS011;8562;52.246;20.966;2023-04-19T14:41:33;6.70;;;4.40;;
16890;SDS011;8562;52.246;20.966;2023-04-19T14:43:58;4.30;;;3.63;;
16890;SDS011;8562;52.246;20.966;2023-04-19T14:46:23;5.30;;;4.37;;
16890;SDS011;8562;52.246;20.966;2023-04-19T14:48:49;6.40;;;4.90;;
16890;SDS011;8562;52.246;20.966;2023-04-19T14:51:14;7.77;;;4.77;;
16890;SDS011;8562;52.246;20.966;2023-04-19T14:53:39;8.20;;;5.47;;
16890;SDS011;8562;52.246;20.966;2023-04-19T14:56:05;5.80;;;4.03;;
16890;SDS011;8562;52.246;20.966;2023-04-19T14:58:30;6.27;;;4.00;;
16890;SDS011;8562;52.246;20.966;2023-04-19T15:00:55;7.87;;;4.20;;
16890;SDS011;8562;52.246;20.966;2023-04-19T15:03:21;6.03;;;4.90;;